createdAt,value
2022-11-15T00:01:02.003Z,2.25
2022-11-15T00:03:47.595Z,2.20
2022-11-15T00:06:33.205Z,2.18
2022-11-15T00:09:18.394Z,2.21
2022-11-15T00:12:03.417Z,2.31
2022-11-15T00:14:48.568Z,2.21
2022-11-15T00:17:34.132Z,2.21
2022-11-15T00:20:19.277Z,2.17
2022-11-15T00:23:05.390Z,2.20
2022-11-15T00:26:00.023Z,2.20
2022-11-15T00:28:45.410Z,2.21
2022-11-15T00:31:30.643Z,2.21
2022-11-15T00:34:15.814Z,2.14
2022-11-15T00:37:00.883Z,2.15
2022-11-15T00:39:46.053Z,2.11
2022-11-15T00:42:31.036Z,2.00
2022-11-15T00:45:16.280Z,2.01
2022-11-15T00:48:01.398Z,1.93
2022-11-15T00:50:46.653Z,1.86
2022-11-15T00:53:32.344Z,1.88
2022-11-15T00:56:17.783Z,1.85
2022-11-15T00:59:02.995Z,1.85
2022-11-15T01:01:48.138Z,1.72
2022-11-15T01:04:33.344Z,1.82
2022-11-15T01:07:18.486Z,1.90
2022-11-15T01:10:04.823Z,1.92
2022-11-15T01:12:50.369Z,1.90
2022-11-15T01:15:40.684Z,1.88
2022-11-15T01:18:26.342Z,1.90
2022-11-15T01:21:14.601Z,1.89
2022-11-15T01:23:59.569Z,1.91
2022-11-15T01:26:45.255Z,1.90
2022-11-15T01:29:30.873Z,1.88
2022-11-15T01:32:16.112Z,1.87
2022-11-15T01:35:01.820Z,1.79
2022-11-15T01:37:47.067Z,1.87
2022-11-15T01:40:32.267Z,1.89
2022-11-15T01:43:37.435Z,1.86
2022-11-15T01:46:22.617Z,1.81
2022-11-15T01:49:14.187Z,1.81
2022-11-15T01:52:00.132Z,1.84
2022-11-15T01:54:46.655Z,1.80
2022-11-15T01:57:31.872Z,1.80
2022-11-15T02:00:18.215Z,1.74
2022-11-15T02:03:03.644Z,1.73
2022-11-15T02:05:49.670Z,1.76
2022-11-15T02:08:35.115Z,1.82
2022-11-15T02:11:20.809Z,1.84
2022-11-15T02:14:07.223Z,1.84
2022-11-15T02:17:31.274Z,1.73
2022-11-15T02:20:44.853Z,1.83
2022-11-15T02:23:49.225Z,1.88
2022-11-15T02:26:59.316Z,1.89
2022-11-15T02:30:09.328Z,1.86
2022-11-15T02:33:28.539Z,1.83
2022-11-15T02:36:19.872Z,1.81
2022-11-15T02:39:28.214Z,1.70
2022-11-15T02:42:39.710Z,1.65
2022-11-15T02:45:30.088Z,1.62
2022-11-15T02:48:16.434Z,1.58
2022-11-15T02:51:02.266Z,1.59
2022-11-15T02:53:47.549Z,1.59
2022-11-15T02:56:33.123Z,1.58
2022-11-15T02:59:21.264Z,1.59
2022-11-15T03:02:15.346Z,1.61
2022-11-15T03:05:28.623Z,1.63
2022-11-15T03:08:39.713Z,1.68
2022-11-15T03:11:25.191Z,1.66
2022-11-15T03:14:56.789Z,1.67
2022-11-15T03:17:47.030Z,1.73
2022-11-15T03:20:33.476Z,1.79
2022-11-15T03:23:18.768Z,1.85
2022-11-15T03:26:07.731Z,1.90
2022-11-15T03:29:06.115Z,1.95
2022-11-15T03:31:56.875Z,1.90
2022-11-15T03:34:49.297Z,1.90
2022-11-15T03:38:06.278Z,1.92
2022-11-15T03:41:00.612Z,1.92
2022-11-15T03:43:55.404Z,1.97
2022-11-15T03:46:41.635Z,1.97
2022-11-15T03:49:29.651Z,1.97
2022-11-15T03:52:18.987Z,2.01
2022-11-15T03:55:06.102Z,2.05
2022-11-15T03:57:55.808Z,2.06
2022-11-15T04:00:40.874Z,2.00
2022-11-15T04:03:26.661Z,2.00
2022-11-15T04:06:11.780Z,2.05
2022-11-15T04:08:56.793Z,2.05
2022-11-15T04:11:41.911Z,2.08
2022-11-15T04:14:27.032Z,2.11
2022-11-15T04:17:12.214Z,2.07
2022-11-15T04:20:15.853Z,1.97
2022-11-15T04:23:21.119Z,1.90
2022-11-15T04:26:11.117Z,1.91
2022-11-15T04:29:15.092Z,1.97
2022-11-15T04:32:00.027Z,2.00
2022-11-15T04:34:45.261Z,2.06
2022-11-15T04:37:30.419Z,2.06
2022-11-15T04:40:15.870Z,2.13
2022-11-15T04:43:03.951Z,2.17
2022-11-15T04:45:49.416Z,2.31
2022-11-15T04:48:34.953Z,2.35
2022-11-15T04:51:20.466Z,2.39
2022-11-15T04:54:05.879Z,2.46
2022-11-15T04:56:51.321Z,2.49
2022-11-15T04:59:36.665Z,2.51
2022-11-15T05:02:21.711Z,2.55
2022-11-15T05:05:07.163Z,2.65
2022-11-15T05:07:52.476Z,2.74
2022-11-15T05:10:37.985Z,2.79
2022-11-15T05:13:47.382Z,2.93
2022-11-15T05:16:32.796Z,3.01
2022-11-15T05:19:18.204Z,3.01
2022-11-15T05:22:03.479Z,3.04
2022-11-15T05:24:48.953Z,3.03
2022-11-15T05:27:34.977Z,3.10
2022-11-15T05:30:20.147Z,3.05
2022-11-15T05:33:05.759Z,2.99
2022-11-15T05:35:56.227Z,2.91
2022-11-15T05:38:41.633Z,2.84
2022-11-15T05:41:35.368Z,2.69
2022-11-15T05:44:23.147Z,2.56
2022-11-15T05:47:10.267Z,2.51
2022-11-15T05:49:55.921Z,2.53
2022-11-15T05:52:41.633Z,2.65
2022-11-15T05:55:27.149Z,2.63
2022-11-15T05:58:12.533Z,2.65
2022-11-15T06:00:57.803Z,2.60
2022-11-15T06:03:42.781Z,2.69
2022-11-15T06:06:29.383Z,2.75
2022-11-15T06:09:14.664Z,2.91
2022-11-15T06:11:59.642Z,3.03
2022-11-15T06:14:45.155Z,3.11
2022-11-15T06:17:30.914Z,3.18
2022-11-15T06:20:16.550Z,3.29
2022-11-15T06:23:03.471Z,3.34
2022-11-15T06:25:48.341Z,3.32
2022-11-15T06:28:34.450Z,3.31
2022-11-15T06:31:19.792Z,3.36
2022-11-15T06:34:05.204Z,3.37
2022-11-15T06:36:50.514Z,3.48
2022-11-15T06:39:35.775Z,3.60
2022-11-15T06:42:21.302Z,3.77
2022-11-15T06:45:06.678Z,3.90
2022-11-15T06:47:52.187Z,4.04
2022-11-15T06:50:37.274Z,4.10
2022-11-15T06:53:23.621Z,4.21
2022-11-15T06:56:10.078Z,4.34
2022-11-15T06:58:55.177Z,4.46
2022-11-15T07:01:40.368Z,4.54
2022-11-15T07:04:26.409Z,4.61
2022-11-15T07:07:11.928Z,4.65
2022-11-15T07:09:57.225Z,4.72
2022-11-15T07:12:42.240Z,4.77
2022-11-15T07:15:27.462Z,4.72
2022-11-15T07:18:13.097Z,4.72
2022-11-15T07:21:02.318Z,4.78
2022-11-15T07:23:47.397Z,4.85
2022-11-15T07:26:33.428Z,5.07
2022-11-15T07:29:18.745Z,5.24
2022-11-15T07:32:04.306Z,5.31
2022-11-15T07:34:49.302Z,5.31
2022-11-15T07:37:34.654Z,5.04
2022-11-15T07:40:19.955Z,5.02
2022-11-15T07:43:07.033Z,5.14
2022-11-15T07:45:57.593Z,5.23
2022-11-15T07:48:45.523Z,5.37
2022-11-15T07:51:30.807Z,5.42
2022-11-15T07:54:16.510Z,5.50
2022-11-15T07:57:06.856Z,5.52
2022-11-15T07:59:52.874Z,5.47
2022-11-15T08:02:38.067Z,5.52
2022-11-15T08:05:23.753Z,5.62
2022-11-15T08:08:10.479Z,5.72
2022-11-15T08:10:55.631Z,5.68
2022-11-15T08:13:40.873Z,5.68
2022-11-15T08:16:25.948Z,5.82
2022-11-15T08:19:11.116Z,5.92
2022-11-15T08:21:56.503Z,5.96
2022-11-15T08:24:41.719Z,5.98
2022-11-15T08:27:26.887Z,6.02
2022-11-15T08:30:13.217Z,6.11
2022-11-15T08:33:00.002Z,6.14
2022-11-15T08:35:45.430Z,6.16
2022-11-15T08:38:31.820Z,6.22
2022-11-15T08:41:29.664Z,6.18
2022-11-15T08:44:14.820Z,6.13
2022-11-15T08:47:00.205Z,6.30
2022-11-15T08:49:45.255Z,6.35
2022-11-15T08:52:30.665Z,6.45
2022-11-15T08:55:18.826Z,6.58
2022-11-15T08:58:04.574Z,6.63
2022-11-15T09:00:49.492Z,6.68
2022-11-15T09:03:35.078Z,6.75
2022-11-15T09:06:20.787Z,6.79
2022-11-15T09:09:05.843Z,6.77
2022-11-15T09:11:51.755Z,6.78
2022-11-15T09:14:37.436Z,6.85
2022-11-15T09:17:24.904Z,6.91
2022-11-15T09:20:10.807Z,7.07
2022-11-15T09:22:56.418Z,7.12
2022-11-15T09:25:41.883Z,7.11
2022-11-15T09:28:26.929Z,7.17
2022-11-15T09:31:12.146Z,7.26
2022-11-15T09:33:57.439Z,7.31
2022-11-15T09:36:42.634Z,7.31
2022-11-15T09:39:28.000Z,7.35
2022-11-15T09:42:50.638Z,7.25
2022-11-15T09:45:42.241Z,7.29
2022-11-15T09:49:04.401Z,7.30
2022-11-15T09:51:55.176Z,7.27
2022-11-15T09:54:52.349Z,7.30
2022-11-15T09:58:02.071Z,7.35
2022-11-15T10:00:51.507Z,7.40
2022-11-15T10:03:24.403Z,7.45
2022-11-15T10:05:55.205Z,7.55
2022-11-15T10:08:24.838Z,7.69
2022-11-15T10:11:22.743Z,7.81
2022-11-15T10:13:48.831Z,7.98
2022-11-15T10:16:33.953Z,8.11
2022-11-15T10:19:10.917Z,8.46
2022-11-15T10:22:01.620Z,9.09
2022-11-15T10:24:30.206Z,10.12
2022-11-15T10:26:57.602Z,10.99
2022-11-15T10:29:27.047Z,11.65
2022-11-15T10:31:54.554Z,12.11
2022-11-15T10:34:23.314Z,12.49
2022-11-15T10:36:56.305Z,13.03
2022-11-15T10:39:23.253Z,13.20
2022-11-15T10:41:50.097Z,13.73
2022-11-15T10:44:32.347Z,14.12
2022-11-15T10:46:59.041Z,14.31
2022-11-15T10:49:29.724Z,14.50
2022-11-15T10:52:01.504Z,14.74
2022-11-15T10:54:41.037Z,14.76
2022-11-15T10:57:15.353Z,15.18
2022-11-15T10:59:47.122Z,15.36
2022-11-15T11:02:36.781Z,15.49
2022-11-15T11:05:06.372Z,15.56
2022-11-15T11:07:36.472Z,15.88
2022-11-15T11:10:49.197Z,15.84
2022-11-15T12:29:06.807Z,18.13
2022-11-15T12:32:05.357Z,18.04
2022-11-15T12:34:46.100Z,17.85
2022-11-15T12:37:36.001Z,17.63
2022-11-15T12:40:22.271Z,17.36
2022-11-15T12:43:12.286Z,17.21
2022-11-15T12:46:03.218Z,17.07
2022-11-15T12:48:36.372Z,17.04
2022-11-15T12:51:03.817Z,16.96
2022-11-15T12:53:34.850Z,16.96
2022-11-15T12:56:04.593Z,16.84
2022-11-15T12:58:51.153Z,16.81
2022-11-15T13:01:33.442Z,16.73
2022-11-15T13:04:10.000Z,16.72
2022-11-15T13:07:04.584Z,16.59
2022-11-15T13:09:37.495Z,16.49
2022-11-15T13:12:05.064Z,16.44
2022-11-15T13:14:37.907Z,16.30
2022-11-15T13:17:19.769Z,16.04
2022-11-15T13:19:48.113Z,15.88
2022-11-15T13:22:33.440Z,15.72
2022-11-15T13:25:02.208Z,15.48
2022-11-15T13:27:29.781Z,15.44
2022-11-15T13:29:56.605Z,15.31
2022-11-15T13:32:23.466Z,15.25
2022-11-15T13:34:53.892Z,15.13
2022-11-15T13:37:23.725Z,14.95
2022-11-15T13:39:50.592Z,14.72
2022-11-15T13:42:19.280Z,14.65
2022-11-15T13:45:01.727Z,14.43
2022-11-15T13:47:29.933Z,14.21
2022-11-15T13:50:00.245Z,14.07
2022-11-15T13:52:32.692Z,13.83
2022-11-15T13:55:24.017Z,13.57
2022-11-15T13:58:07.177Z,13.29
2022-11-15T14:00:44.228Z,12.92
2022-11-15T14:03:21.193Z,12.62
2022-11-15T14:06:03.595Z,12.28
2022-11-15T14:08:30.668Z,12.06
2022-11-15T14:11:19.612Z,11.91
2022-11-15T14:14:08.405Z,11.92
2022-11-15T14:16:36.828Z,11.99
2022-11-15T14:19:05.403Z,11.85
2022-11-15T14:21:32.691Z,11.60
2022-11-15T14:24:18.687Z,11.55
2022-11-15T14:26:45.869Z,11.46
2022-11-15T14:32:50.383Z,10.81
2022-11-15T14:35:20.211Z,10.51
2022-11-15T14:37:47.403Z,10.33
2022-11-15T14:40:17.185Z,10.21
2022-11-15T14:42:45.290Z,10.16
2022-11-15T14:45:20.515Z,10.10
2022-11-15T14:47:47.470Z,10.06
2022-11-15T14:50:20.796Z,9.97
2022-11-15T14:52:48.666Z,9.76
2022-11-15T14:58:14.899Z,9.53
2022-11-15T15:00:42.341Z,9.51
2022-11-15T15:03:09.420Z,9.44
2022-11-15T15:05:44.354Z,9.28
2022-11-15T15:08:11.252Z,9.01
2022-11-15T15:10:41.816Z,8.89
2022-11-15T15:13:21.547Z,8.57
2022-11-15T15:15:49.104Z,8.35
2022-11-15T15:18:16.556Z,8.19
2022-11-15T15:20:44.504Z,8.01
2022-11-15T15:23:19.902Z,7.89
2022-11-15T15:25:48.864Z,7.78
2022-11-15T15:28:16.003Z,7.70
2022-11-15T15:30:42.937Z,7.46
2022-11-15T15:33:09.680Z,7.40
2022-11-15T15:35:36.475Z,7.18
2022-11-15T15:38:03.778Z,7.00
2022-11-15T15:40:32.750Z,6.83
2022-11-15T15:42:59.916Z,6.74
2022-11-15T15:45:28.314Z,6.74
2022-11-15T15:47:55.182Z,6.65
2022-11-15T15:50:30.790Z,6.38
2022-11-15T15:52:59.497Z,6.46
2022-11-15T15:55:26.396Z,6.45
2022-11-15T15:57:53.682Z,6.35
2022-11-15T16:00:22.378Z,6.38
2022-11-15T16:02:50.007Z,6.42
2022-11-15T16:05:16.848Z,6.25
2022-11-15T16:07:44.354Z,6.23
2022-11-15T16:10:23.381Z,6.30
2022-11-15T16:12:50.246Z,6.33
2022-11-15T16:15:17.076Z,6.34
2022-11-15T16:17:51.755Z,6.41
2022-11-15T16:20:40.261Z,6.38
2022-11-15T16:23:10.100Z,6.33
2022-11-15T16:25:57.331Z,6.27
2022-11-15T16:28:33.624Z,6.26
2022-11-15T16:31:06.354Z,6.26
2022-11-15T16:33:33.507Z,6.31
2022-11-15T16:36:00.690Z,6.32
2022-11-15T16:38:27.540Z,6.23
2022-11-15T16:40:54.307Z,6.20
2022-11-15T16:43:21.077Z,6.21
2022-11-15T16:45:48.033Z,6.22
2022-11-15T16:48:26.450Z,6.09
2022-11-15T16:50:58.069Z,6.05
2022-11-15T16:53:26.164Z,5.97
2022-11-15T16:55:53.323Z,5.95
2022-11-15T16:58:21.634Z,5.93
2022-11-15T17:00:53.405Z,5.88
2022-11-15T17:03:20.848Z,5.83
2022-11-15T17:05:47.551Z,5.78
2022-11-15T17:08:14.284Z,5.73
2022-11-15T17:10:41.958Z,5.65
2022-11-15T17:13:14.908Z,5.53
2022-11-15T17:15:41.794Z,5.57
2022-11-15T17:18:11.955Z,5.60
2022-11-15T17:20:38.629Z,5.51
2022-11-15T17:23:07.086Z,5.49
2022-11-15T17:25:33.811Z,5.54
2022-11-15T17:28:00.578Z,5.55
2022-11-15T17:30:27.415Z,5.49
2022-11-15T17:32:54.182Z,5.42
2022-11-15T17:35:20.994Z,5.32
2022-11-15T17:37:48.459Z,5.29
2022-11-15T17:40:15.591Z,5.17
2022-11-15T17:42:42.382Z,5.10
2022-11-15T17:45:10.834Z,5.12
2022-11-15T17:47:37.920Z,5.17
2022-11-15T17:50:05.236Z,5.03
2022-11-15T17:52:31.997Z,4.97
2022-11-15T17:54:58.762Z,4.97
2022-11-15T17:57:25.520Z,4.98
2022-11-15T17:59:52.488Z,4.91
2022-11-15T18:02:19.548Z,4.93
2022-11-15T18:04:46.373Z,4.92
2022-11-15T18:07:14.312Z,4.98
2022-11-15T18:09:44.128Z,5.03
2022-11-15T18:12:12.008Z,5.03
2022-11-15T18:14:39.119Z,4.96
2022-11-15T18:17:05.937Z,4.92
2022-11-15T18:19:32.761Z,4.90
2022-11-15T18:22:00.895Z,4.88
2022-11-15T18:24:38.622Z,4.81
2022-11-15T18:27:06.900Z,4.78
2022-11-15T18:29:37.716Z,4.72
2022-11-15T18:32:11.444Z,4.72
2022-11-15T18:34:38.491Z,4.71
2022-11-15T18:37:05.259Z,4.60
2022-11-15T18:39:32.630Z,4.59
2022-11-15T18:41:59.746Z,4.54
2022-11-15T18:44:28.697Z,4.49
2022-11-15T18:46:55.499Z,4.44
2022-11-15T18:49:22.607Z,4.44
2022-11-15T18:51:49.508Z,4.49
2022-11-15T18:54:17.172Z,4.51
2022-11-15T18:56:44.677Z,4.39
2022-11-15T18:59:11.500Z,4.23
2022-11-15T19:01:40.342Z,4.26
2022-11-15T19:04:10.780Z,4.22
2022-11-15T19:06:42.859Z,4.13
2022-11-15T19:09:11.483Z,4.20
2022-11-15T19:11:39.868Z,4.20
2022-11-15T19:14:09.069Z,4.17
2022-11-15T19:16:37.865Z,4.08
2022-11-15T19:19:07.420Z,3.99
2022-11-15T19:21:34.952Z,3.99
2022-11-15T19:24:02.188Z,4.02
2022-11-15T19:26:29.731Z,3.99
2022-11-15T19:28:58.401Z,3.98
2022-11-15T19:31:26.397Z,3.99
2022-11-15T19:33:53.681Z,3.99
2022-11-15T19:36:28.916Z,4.02
2022-11-15T19:38:55.811Z,4.04
2022-11-15T19:41:24.283Z,4.10
2022-11-15T19:43:51.864Z,4.10
2022-11-15T19:46:20.695Z,4.08
2022-11-15T19:48:47.862Z,4.09
2022-11-15T19:51:25.447Z,4.08
2022-11-15T19:54:01.392Z,4.11
2022-11-15T19:56:28.156Z,4.16
2022-11-15T19:58:55.919Z,4.07
2022-11-15T20:01:23.909Z,4.09
2022-11-15T20:03:54.585Z,4.14
2022-11-15T20:06:30.228Z,4.12
2022-11-15T20:08:57.575Z,4.17
2022-11-15T20:11:24.898Z,4.27
2022-11-15T20:13:51.771Z,4.33
2022-11-15T20:16:21.224Z,4.32
2022-11-15T20:18:49.144Z,4.26
2022-11-15T20:21:16.629Z,4.24
2022-11-15T20:23:43.446Z,4.28
2022-11-15T20:26:11.587Z,4.32
2022-11-15T20:28:39.321Z,4.33
2022-11-15T20:31:06.828Z,4.36
2022-11-15T20:33:33.924Z,4.44
2022-11-15T20:36:15.662Z,4.47
2022-11-15T20:38:43.531Z,4.47
2022-11-15T20:41:28.976Z,4.44
2022-11-15T20:43:56.088Z,4.41
2022-11-15T20:46:22.912Z,4.34
2022-11-15T20:48:49.665Z,4.23
2022-11-15T20:51:17.805Z,4.18
2022-11-15T20:53:45.589Z,4.22
2022-11-15T20:56:18.129Z,4.22
2022-11-15T20:58:45.882Z,4.18
2022-11-15T21:01:15.238Z,4.17
2022-11-15T21:03:42.144Z,4.23
2022-11-15T21:06:10.003Z,4.26
2022-11-15T21:08:55.428Z,4.28
2022-11-15T21:11:40.650Z,4.32
2022-11-15T21:14:09.588Z,4.35
2022-11-15T21:16:37.593Z,4.30
2022-11-15T21:19:05.703Z,4.40
2022-11-15T21:21:32.648Z,4.49
2022-11-15T21:24:00.126Z,4.54
2022-11-15T21:26:27.332Z,4.58
2022-11-15T21:28:54.112Z,4.71
2022-11-15T21:31:20.907Z,4.83
2022-11-15T21:33:47.675Z,4.91
2022-11-15T21:36:14.617Z,4.95
2022-11-15T21:38:41.380Z,4.95
2022-11-15T21:41:08.132Z,4.95
2022-11-15T21:43:34.878Z,4.96
2022-11-15T21:46:04.314Z,5.01
2022-11-15T21:48:33.337Z,4.99
2022-11-15T21:51:02.716Z,5.02
2022-11-15T21:53:30.194Z,5.10
2022-11-15T21:55:57.138Z,5.14
2022-11-15T21:58:24.066Z,5.15
2022-11-15T22:01:09.283Z,5.15
2022-11-15T22:03:36.313Z,5.08
2022-11-15T22:06:03.149Z,5.09
2022-11-15T22:08:31.551Z,5.01
2022-11-15T22:10:58.622Z,4.96
2022-11-15T22:13:26.342Z,4.92
2022-11-15T22:15:56.182Z,4.87
2022-11-15T22:18:27.117Z,4.91
2022-11-15T22:20:57.484Z,4.90
2022-11-15T22:23:25.529Z,4.99
2022-11-15T22:25:52.999Z,5.03
2022-11-15T22:28:20.254Z,4.98
2022-11-15T22:30:48.315Z,4.91
2022-11-15T22:33:16.523Z,4.81
2022-11-15T22:35:44.088Z,4.80
2022-11-15T22:38:11.098Z,4.78
2022-11-15T22:40:38.489Z,4.71
2022-11-15T22:43:05.837Z,4.68
2022-11-15T22:45:33.617Z,4.67
2022-11-15T22:48:00.549Z,4.64
2022-11-15T22:50:27.389Z,4.58
2022-11-15T22:52:54.290Z,4.54
2022-11-15T22:55:21.073Z,4.51
2022-11-15T22:57:47.932Z,4.55
2022-11-15T23:00:16.145Z,4.53
2022-11-15T23:02:43.119Z,4.49
2022-11-15T23:05:10.034Z,4.41
2022-11-15T23:07:36.907Z,4.33
2022-11-15T23:10:22.198Z,4.24
2022-11-15T23:13:07.506Z,4.22
2022-11-15T23:16:06.580Z,4.25
2022-11-15T23:18:35.588Z,4.10
2022-11-15T23:21:14.128Z,4.05
2022-11-15T23:23:41.286Z,4.04
2022-11-15T23:26:08.444Z,3.96
2022-11-15T23:28:36.067Z,3.96
2022-11-15T23:31:25.859Z,4.04
2022-11-15T23:33:58.657Z,4.05
2022-11-15T23:36:29.247Z,4.07
2022-11-15T23:38:56.613Z,4.09
2022-11-15T23:41:24.911Z,4.06
2022-11-15T23:43:52.236Z,4.08
2022-11-15T23:46:19.368Z,4.08
2022-11-15T23:48:46.200Z,4.10
2022-11-15T23:51:13.122Z,4.08
2022-11-15T23:53:39.885Z,4.08
2022-11-15T23:56:11.408Z,4.11
2022-11-15T23:58:38.367Z,4.23
